TimeCST,TemperatureF,Dew PointF,Humidity,Sea Level PressureIn,VisibilityMPH,Wind Direction,Wind SpeedMPH,Gust SpeedMPH,PrecipitationIn,Events,Conditions,WindDirDegrees,DateUTC
12:53 AM,26.1,19.9,78,30.32,10.0,NNW,9.2,-,N/A,,Overcast,340,2013-03-02 06:53:00
1:53 AM,26.1,19.9,78,30.33,10.0,NNW,9.2,-,N/A,,Overcast,340,2013-03-02 07:53:00
2:53 AM,25.0,19.9,81,30.32,10.0,North,10.4,-,N/A,,Overcast,350,2013-03-02 08:53:00
3:53 AM,26.1,21.0,81,30.31,10.0,North,4.6,-,N/A,,Overcast,350,2013-03-02 09:53:00
4:53 AM,26.1,21.0,81,30.32,10.0,NNW,8.1,-,N/A,,Overcast,340,2013-03-02 10:53:00
5:53 AM,25.0,21.0,85,30.34,9.0,NNW,5.8,-,N/A,,Overcast,340,2013-03-02 11:53:00
6:53 AM,21.9,19.0,89,30.35,8.0,NNW,6.9,-,N/A,,Clear,340,2013-03-02 12:53:00
7:53 AM,24.1,19.0,81,30.37,8.0,NNW,10.4,-,N/A,,Clear,340,2013-03-02 13:53:00
8:53 AM,27.0,19.0,72,30.38,10.0,NNW,9.2,-,N/A,,Partly Cloudy,340,2013-03-02 14:53:00
9:17 AM,26.6,19.4,74,30.36,10.0,North,15.0,-,N/A,,Mostly Cloudy,350,2013-03-02 15:17:00
9:53 AM,27.0,19.0,72,30.38,10.0,North,10.4,-,N/A,,Overcast,360,2013-03-02 15:53:00
10:53 AM,28.0,18.0,66,30.38,10.0,North,9.2,-,N/A,,Overcast,10,2013-03-02 16:53:00
11:53 AM,30.0,19.9,66,30.38,10.0,NW,9.2,-,N/A,,Mostly Cloudy,310,2013-03-02 17:53:00
12:53 PM,30.0,19.9,66,30.35,10.0,North,6.9,-,N/A,,Mostly Cloudy,360,2013-03-02 18:53:00
1:53 PM,33.1,21.0,61,30.33,10.0,North,5.8,-,N/A,,Clear,350,2013-03-02 19:53:00
2:53 PM,34.0,21.0,59,30.31,10.0,NW,5.8,-,N/A,,Clear,320,2013-03-02 20:53:00
3:53 PM,35.1,19.9,54,30.30,10.0,NNW,6.9,-,N/A,,Clear,330,2013-03-02 21:53:00
4:53 PM,36.0,19.9,52,30.29,10.0,NNW,5.8,-,N/A,,Clear,340,2013-03-02 22:53:00
5:53 PM,33.1,21.0,61,30.29,10.0,NW,5.8,-,N/A,,Clear,310,2013-03-02 23:53:00
6:53 PM,30.9,19.9,64,30.30,10.0,Calm,Calm,-,N/A,,Clear,0,2013-03-03 00:53:00
7:53 PM,28.0,19.9,72,30.28,10.0,ENE,4.6,-,N/A,,Clear,60,2013-03-03 01:53:00
8:53 PM,28.0,19.9,72,30.27,9.0,East,4.6,-,N/A,,Clear,90,2013-03-03 02:53:00
9:53 PM,26.1,19.9,78,30.27,10.0,ESE,4.6,-,N/A,,Scattered Clouds,110,2013-03-03 03:53:00
10:53 PM,26.6,21.2,80,30.22,10.0,ESE,3.5,-,N/A,,Overcast,120,2013-03-03 04:53:00
11:53 PM,26.1,19.9,78,30.22,9.0,ESE,4.6,-,N/A,,Clear,120,2013-03-03 05:53:00